createdAt,value
2022-08-08T00:01:08.611Z,14.84
2022-08-08T00:06:43.424Z,14.79
2022-08-08T00:12:08.030Z,14.75
2022-08-08T00:17:58.450Z,14.71
2022-08-08T00:23:06.407Z,14.69
2022-08-08T00:28:34.457Z,14.73
2022-08-08T00:34:18.399Z,14.77
2022-08-08T00:41:07.728Z,14.81
2022-08-08T00:44:54.047Z,14.81
2022-08-08T00:50:27.318Z,14.77
2022-08-08T00:55:53.249Z,14.67
2022-08-08T01:01:12.225Z,14.54
2022-08-08T01:06:49.213Z,14.40
2022-08-08T01:12:05.622Z,14.27
2022-08-08T01:17:29.973Z,14.16
2022-08-08T01:23:55.054Z,14.01
2022-08-08T01:29:08.123Z,13.91
2022-08-08T01:34:46.784Z,13.82
2022-08-08T01:40:14.662Z,13.72
2022-08-08T01:45:50.465Z,13.63
2022-08-08T01:51:31.715Z,13.54
2022-08-08T01:58:12.032Z,13.46
2022-08-08T02:03:56.210Z,13.39
2022-08-08T02:08:59.379Z,13.36
2022-08-08T02:14:04.781Z,13.34
2022-08-08T02:19:57.191Z,13.31
2022-08-08T02:25:16.421Z,13.35
2022-08-08T02:30:35.199Z,13.46
2022-08-08T02:36:04.280Z,13.57
2022-08-08T02:42:04.371Z,13.65
2022-08-08T02:47:00.701Z,13.74
2022-08-08T02:52:34.994Z,13.78
2022-08-08T02:58:01.531Z,13.75
2022-08-08T03:05:00.611Z,13.71
2022-08-08T03:08:59.162Z,13.67
2022-08-08T03:15:56.872Z,13.63
2022-08-08T03:20:10.546Z,13.61
2022-08-08T03:25:18.626Z,13.66
2022-08-08T03:30:21.671Z,13.71
2022-08-08T03:35:26.689Z,13.73
2022-08-08T03:40:33.597Z,13.76
2022-08-08T03:46:04.884Z,13.79
2022-08-08T03:51:06.916Z,13.87
2022-08-08T03:56:09.965Z,13.91
2022-08-08T04:02:31.590Z,13.93
2022-08-08T04:07:02.118Z,13.95
2022-08-08T04:12:06.387Z,13.93
2022-08-08T04:17:22.454Z,13.92
2022-08-08T04:22:37.356Z,13.95
2022-08-08T04:28:01.544Z,14.05
2022-08-08T04:33:03.711Z,14.26
2022-08-08T04:38:06.445Z,14.36
2022-08-08T04:43:12.193Z,14.61
2022-08-08T04:48:16.151Z,14.92
2022-08-08T04:54:27.629Z,15.16
2022-08-08T04:58:41.039Z,15.31
2022-08-08T05:04:09.956Z,15.49
2022-08-08T05:09:06.305Z,15.68
2022-08-08T05:14:12.427Z,15.99
2022-08-08T05:20:09.994Z,16.32
2022-08-08T05:24:38.376Z,16.75
2022-08-08T05:29:42.211Z,17.28
2022-08-08T05:34:49.909Z,17.79
2022-08-08T05:39:56.012Z,18.43
2022-08-08T05:45:24.626Z,19.01
2022-08-08T05:50:26.518Z,19.53
2022-08-08T05:55:30.444Z,19.94
2022-08-08T06:00:56.841Z,20.44
2022-08-08T06:06:06.670Z,20.72
2022-08-08T06:11:10.688Z,21.19
2022-08-08T06:16:16.874Z,21.62
2022-08-08T06:21:32.770Z,22.04
2022-08-08T06:26:52.449Z,22.38
2022-08-08T06:32:10.645Z,22.57
2022-08-08T06:37:25.111Z,22.77
2022-08-08T06:42:35.933Z,22.85
2022-08-08T06:47:58.654Z,23.04
2022-08-08T06:53:10.100Z,23.30
2022-08-08T06:58:19.553Z,23.48
2022-08-08T07:04:37.613Z,23.64
2022-08-08T07:09:20.809Z,23.80
2022-08-08T07:14:36.851Z,24.10
2022-08-08T07:19:41.914Z,24.31
2022-08-08T07:24:59.467Z,24.45
2022-08-08T07:30:08.279Z,24.87
2022-08-08T07:35:16.644Z,25.17
2022-08-08T07:40:29.728Z,25.37
2022-08-08T07:46:04.707Z,25.67
2022-08-08T07:51:00.576Z,25.92
2022-08-08T07:56:04.370Z,25.89
2022-08-08T08:01:12.136Z,25.75
2022-08-08T08:06:17.607Z,25.56
2022-08-08T08:11:23.633Z,25.48
2022-08-08T08:16:41.134Z,25.31
2022-08-08T08:21:53.510Z,25.16
2022-08-08T08:27:02.985Z,25.24
2022-08-08T08:32:06.858Z,25.40
2022-08-08T08:37:11.607Z,25.37
2022-08-08T08:42:19.376Z,25.38
2022-08-08T08:47:43.970Z,25.40
2022-08-08T08:52:58.557Z,25.35
2022-08-08T08:58:03.766Z,25.13
2022-08-08T09:03:09.190Z,24.85
2022-08-08T09:08:18.347Z,24.71
2022-08-08T09:13:27.950Z,24.46
2022-08-08T09:18:31.061Z,24.30
2022-08-08T09:23:40.620Z,24.41
2022-08-08T09:28:44.181Z,24.70
2022-08-08T09:34:14.773Z,25.08
2022-08-08T09:39:20.646Z,25.36
2022-08-08T09:44:36.377Z,25.46
2022-08-08T09:49:42.341Z,25.41
2022-08-08T09:54:54.478Z,25.23
2022-08-08T10:00:31.417Z,25.26
2022-08-08T10:05:27.976Z,25.44
2022-08-08T10:10:50.109Z,25.68
2022-08-08T10:16:00.672Z,26.00
2022-08-08T10:21:23.040Z,26.36
2022-08-08T10:26:57.455Z,26.76
2022-08-08T10:32:20.694Z,26.72
2022-08-08T10:37:30.243Z,26.79
2022-08-08T10:42:35.797Z,26.56
2022-08-08T10:47:48.312Z,26.48
2022-08-08T10:53:02.439Z,26.47
2022-08-08T10:58:11.724Z,26.60
2022-08-08T11:03:15.781Z,26.73
2022-08-08T11:08:38.686Z,26.79
2022-08-08T11:13:52.096Z,26.94
2022-08-08T11:19:04.729Z,26.81
2022-08-08T11:24:10.040Z,26.50
2022-08-08T11:29:14.062Z,26.29
2022-08-08T11:34:24.516Z,26.09
2022-08-08T11:39:41.374Z,25.90
2022-08-08T11:44:45.752Z,25.96
2022-08-08T11:49:53.045Z,26.38
2022-08-08T11:54:55.486Z,26.82
2022-08-08T12:00:02.598Z,27.14
2022-08-08T12:05:12.557Z,27.53
2022-08-08T12:10:19.110Z,27.83
2022-08-08T12:15:41.798Z,27.79
2022-08-08T12:20:45.777Z,27.55
2022-08-08T12:25:52.687Z,27.25
2022-08-08T12:31:10.012Z,26.82
2022-08-08T12:36:14.094Z,26.63
2022-08-08T12:41:33.855Z,26.23
2022-08-08T12:46:38.209Z,25.79
2022-08-08T12:51:50.246Z,25.58
2022-08-08T12:57:21.230Z,25.36
2022-08-08T13:02:33.571Z,25.10
2022-08-08T13:08:02.831Z,24.94
2022-08-08T13:13:06.139Z,24.80
2022-08-08T13:18:13.770Z,24.69
2022-08-08T13:23:30.229Z,24.60
2022-08-08T13:28:37.650Z,24.47
2022-08-08T13:33:50.650Z,24.34
2022-08-08T13:39:00.066Z,24.30
2022-08-08T13:44:03.148Z,24.29
2022-08-08T13:50:34.788Z,24.37
2022-08-08T13:54:49.740Z,24.54
2022-08-08T14:00:05.473Z,24.68
2022-08-08T14:05:22.351Z,24.77
2022-08-08T14:10:33.779Z,24.87
2022-08-08T14:15:46.364Z,24.95
2022-08-08T14:21:02.646Z,24.94
2022-08-08T14:26:11.556Z,24.86
2022-08-08T14:31:20.457Z,24.72
2022-08-08T14:36:41.469Z,24.61
2022-08-08T14:42:03.120Z,24.46
2022-08-08T14:47:17.231Z,24.29
2022-08-08T14:52:24.001Z,24.25
2022-08-08T14:58:02.754Z,24.19
2022-08-08T15:03:01.713Z,24.19
2022-08-08T15:08:22.177Z,24.23
2022-08-08T15:13:40.868Z,24.13
2022-08-08T15:18:58.387Z,24.08
2022-08-08T15:24:00.889Z,24.08
2022-08-08T15:29:03.616Z,24.05
2022-08-08T15:34:29.118Z,23.99
2022-08-08T15:39:38.300Z,23.90
2022-08-08T15:44:42.607Z,23.91
2022-08-08T15:49:46.536Z,24.14
2022-08-08T15:54:51.632Z,24.22
2022-08-08T16:00:06.392Z,24.27
2022-08-08T16:05:17.432Z,24.29
2022-08-08T16:13:14.683Z,24.27
2022-08-08T16:15:59.708Z,24.22
2022-08-08T16:21:20.796Z,24.13
2022-08-08T16:26:34.516Z,23.99
2022-08-08T16:31:44.791Z,23.78
2022-08-08T16:36:52.684Z,23.49
2022-08-08T16:42:01.278Z,23.28
2022-08-08T16:47:40.670Z,23.08
2022-08-08T16:55:02.814Z,22.90
2022-08-08T16:58:15.941Z,22.70
2022-08-08T17:03:24.430Z,22.50
2022-08-08T17:08:37.758Z,22.22
2022-08-08T17:13:50.290Z,21.97
2022-08-08T17:19:03.671Z,21.62
2022-08-08T17:24:09.940Z,21.35
2022-08-08T17:29:25.390Z,21.09
2022-08-08T17:34:48.097Z,20.89
2022-08-08T17:40:05.868Z,20.67
2022-08-08T17:45:21.126Z,20.52
2022-08-08T17:50:25.714Z,20.40
2022-08-08T17:56:04.849Z,20.31
2022-08-08T18:00:56.204Z,20.22
2022-08-08T18:06:00.090Z,20.13
2022-08-08T18:11:08.446Z,20.03
2022-08-08T18:16:12.819Z,19.93
2022-08-08T18:21:35.630Z,19.82
2022-08-08T18:26:42.809Z,19.72
2022-08-08T18:31:55.982Z,19.64
2022-08-08T18:37:00.318Z,19.55
2022-08-08T18:42:04.138Z,19.47
2022-08-08T18:47:06.732Z,19.40
2022-08-08T18:52:18.578Z,19.34
2022-08-08T18:57:25.370Z,19.27
2022-08-08T19:02:30.037Z,19.21
2022-08-08T19:07:33.557Z,19.17
2022-08-08T19:12:44.427Z,19.14
2022-08-08T19:17:48.103Z,19.13
2022-08-08T19:23:10.700Z,19.12
2022-08-08T19:28:19.405Z,19.11
2022-08-08T19:33:24.398Z,19.08
2022-08-08T19:38:27.010Z,19.02
2022-08-08T19:43:30.503Z,18.97
2022-08-08T19:48:33.653Z,18.92
2022-08-08T19:53:51.613Z,18.88
2022-08-08T19:58:56.197Z,18.84
2022-08-08T20:04:03.392Z,18.79
2022-08-08T20:09:09.037Z,18.74
2022-08-08T20:14:34.318Z,18.70
2022-08-08T20:19:43.375Z,18.68
2022-08-08T20:24:46.115Z,18.65
2022-08-08T20:29:55.707Z,18.62
2022-08-08T20:35:04.634Z,18.56
2022-08-08T20:40:08.374Z,18.49
2022-08-08T20:45:11.016Z,18.40
2022-08-08T20:50:15.073Z,18.28
2022-08-08T20:55:22.828Z,18.15
2022-08-08T21:00:28.449Z,18.04
2022-08-08T21:05:32.863Z,17.97
2022-08-08T21:10:52.124Z,17.91
2022-08-08T21:16:05.999Z,17.83
2022-08-08T21:21:20.640Z,17.76
2022-08-08T21:26:41.435Z,17.65
2022-08-08T21:31:58.398Z,17.60
2022-08-08T21:37:11.166Z,17.58
2022-08-08T21:42:14.017Z,17.59
2022-08-08T21:48:01.873Z,17.58
2022-08-08T21:54:33.836Z,17.54
2022-08-08T21:58:05.465Z,17.47
2022-08-08T22:03:11.082Z,17.39
2022-08-08T22:08:24.248Z,17.33
2022-08-08T22:13:26.898Z,17.32
2022-08-08T22:18:52.636Z,17.30
2022-08-08T22:23:55.658Z,17.24
2022-08-08T22:29:14.203Z,17.15
2022-08-08T22:34:22.812Z,17.05
2022-08-08T22:39:39.421Z,16.97
2022-08-08T22:44:48.910Z,16.93
2022-08-08T22:49:53.829Z,16.88
2022-08-08T22:55:06.037Z,16.82
2022-08-08T23:00:13.485Z,16.79
2022-08-08T23:05:16.137Z,16.77
2022-08-08T23:10:21.340Z,16.75
2022-08-08T23:16:41.992Z,16.73
2022-08-08T23:20:54.939Z,16.69
2022-08-08T23:26:01.162Z,16.67
2022-08-08T23:31:03.571Z,16.65
2022-08-08T23:36:08.931Z,16.60
2022-08-08T23:41:22.883Z,16.54
2022-08-08T23:49:06.332Z,16.48
2022-08-08T23:52:06.497Z,16.46
2022-08-08T23:57:25.241Z,16.43
